createdAt,value
2023-01-07T00:26:07.755Z,101104.56
2023-01-07T02:10:16.139Z,101092.94
2023-01-07T02:13:20.965Z,101099.03
2023-01-07T02:37:40.764Z,101069.16
2023-01-07T02:40:32.313Z,101065.50
2023-01-07T02:43:05.614Z,101059.59
2023-01-07T02:45:39.497Z,101062.31
2023-01-07T02:48:08.880Z,101066.59
2023-01-07T02:50:36.046Z,101071.09
2023-01-07T02:53:03.469Z,101071.19
2023-01-07T02:55:41.867Z,101070.16
2023-01-07T02:58:41.694Z,101061.56
2023-01-07T03:01:21.631Z,101063.50
2023-01-07T03:04:03.999Z,101066.94
2023-01-07T03:07:08.831Z,101059.88
2023-01-07T03:10:01.418Z,101062.63
2023-01-07T03:12:43.927Z,101053.00
2023-01-07T03:15:16.882Z,101058.94
2023-01-07T03:17:55.152Z,101055.56
2023-01-07T03:20:24.286Z,101060.09
2023-01-07T03:22:52.786Z,101062.16
2023-01-07T03:25:22.379Z,101063.13
2023-01-07T03:27:52.213Z,101062.22
2023-01-07T03:30:19.730Z,101068.28
2023-01-07T03:33:01.417Z,101063.91
2023-01-07T03:35:31.152Z,101070.75
2023-01-07T03:38:01.067Z,101070.81
2023-01-07T03:40:28.435Z,101062.25
2023-01-07T03:42:55.549Z,101070.16
2023-01-07T03:45:24.289Z,101060.72
2023-01-07T03:47:53.975Z,101057.19
2023-01-07T03:50:21.776Z,101058.75
2023-01-07T03:52:50.741Z,101060.38
2023-01-07T03:55:17.919Z,101056.75
2023-01-07T03:57:45.097Z,101054.97
2023-01-07T04:00:13.841Z,101053.97
2023-01-07T04:02:42.093Z,101037.47
2023-01-07T04:32:30.451Z,101011.28
2023-01-07T04:34:57.600Z,101007.69
2023-01-07T04:37:24.771Z,101010.22
2023-01-07T04:39:53.169Z,101001.44
2023-01-07T04:42:20.321Z,101004.88
2023-01-07T04:44:47.466Z,101014.34
2023-01-07T04:47:14.609Z,101012.00
2023-01-07T04:49:41.711Z,101010.44
2023-01-07T04:52:09.045Z,101010.38
2023-01-07T04:54:36.145Z,101010.31
2023-01-07T04:57:03.430Z,101009.22
2023-01-07T04:59:30.568Z,101011.78
2023-01-07T05:01:57.791Z,101011.66
2023-01-07T05:04:25.120Z,101009.19
2023-01-07T05:06:52.286Z,101013.50
2023-01-07T05:09:19.517Z,101011.66
2023-01-07T05:11:46.669Z,101015.03
2023-01-07T05:14:13.970Z,101015.16
2023-01-07T05:16:41.257Z,101013.31
2023-01-07T05:19:09.997Z,101017.53
2023-01-07T05:34:27.475Z,101003.16
2023-01-07T06:23:52.896Z,100993.19
2023-01-07T06:53:12.676Z,101000.63
2023-01-07T06:55:39.877Z,100992.88
2023-01-07T10:16:06.650Z,100973.25
2023-01-07T10:19:01.631Z,100972.06
2023-01-07T10:21:38.950Z,100975.41
2023-01-07T10:24:22.035Z,100966.53
2023-01-07T10:26:51.557Z,100961.03
2023-01-07T10:29:29.781Z,100963.47
2023-01-07T10:31:59.992Z,100954.63
2023-01-07T11:35:17.501Z,100878.78
2023-01-07T11:37:46.538Z,100873.31
2023-01-07T11:40:15.295Z,100872.22
2023-01-07T11:42:49.475Z,100871.75
2023-01-07T11:45:22.501Z,100872.38
2023-01-07T11:48:07.986Z,100866.19
2023-01-07T11:50:37.480Z,100872.88
2023-01-07T11:53:13.777Z,100867.34
2023-01-07T11:56:07.985Z,100864.72
2023-01-07T11:58:40.788Z,100864.28
2023-01-07T12:01:07.951Z,100858.97
2023-01-07T12:03:40.776Z,100860.41
2023-01-07T12:06:32.677Z,100854.44
2023-01-07T12:09:25.251Z,100853.59
2023-01-07T12:11:54.330Z,100846.63
2023-01-07T12:14:31.558Z,100854.06
2023-01-07T12:17:11.769Z,100845.25
2023-01-07T12:19:58.784Z,100838.47
2023-01-07T12:22:44.237Z,100836.81
2023-01-07T12:25:34.584Z,100836.69
2023-01-07T12:28:18.796Z,100836.94
2023-01-07T12:31:23.681Z,100832.47
2023-01-07T12:34:25.848Z,100821.41
2023-01-07T12:37:01.664Z,100826.31
2023-01-07T12:39:37.818Z,100828.78
2023-01-07T12:42:24.690Z,100820.41
2023-01-07T12:44:55.820Z,100816.50
2023-01-07T12:47:34.961Z,100817.75
2023-01-07T12:50:12.223Z,100818.53
2023-01-07T12:52:56.358Z,100813.34
2023-01-07T12:55:28.758Z,100803.91
2023-01-07T12:58:17.857Z,100806.72
2023-01-07T13:01:02.513Z,100800.53
2023-01-07T13:03:40.024Z,100795.25
2023-01-07T13:06:14.433Z,100799.69
2023-01-07T13:09:16.335Z,100787.53
2023-01-07T13:12:05.162Z,100790.16
2023-01-07T13:14:37.895Z,100789.31
2023-01-07T13:17:17.028Z,100785.31
2023-01-07T13:19:44.301Z,100784.22
2023-01-07T13:22:23.425Z,100782.63
2023-01-07T13:25:32.950Z,100779.19
2023-01-07T13:28:38.636Z,100778.19
2023-01-07T13:31:11.476Z,100774.47
2023-01-07T13:34:02.561Z,100769.94
2023-01-07T13:36:56.661Z,100767.25
2023-01-07T13:39:44.351Z,100766.56
2023-01-07T13:42:35.957Z,100758.75
2023-01-07T13:45:09.723Z,100754.69
2023-01-07T13:47:50.473Z,100761.63
2023-01-07T13:50:42.248Z,100753.72
2023-01-07T13:53:15.350Z,100753.16
2023-01-07T13:55:47.601Z,100747.56
2023-01-07T13:58:34.024Z,100742.47
2023-01-07T14:01:18.179Z,100741.66
2023-01-07T14:03:53.402Z,100739.09
2023-01-07T14:06:20.759Z,100739.50
2023-01-07T14:09:06.111Z,100735.56
2023-01-07T14:11:33.189Z,100733.41
2023-01-07T14:14:31.516Z,100737.03
2023-01-07T14:17:18.375Z,100735.25
2023-01-07T14:19:50.343Z,100730.66
2023-01-07T14:22:32.617Z,100734.41
2023-01-07T14:25:23.866Z,100732.25
2023-01-07T14:28:06.323Z,100725.56
2023-01-07T14:30:44.157Z,100720.78
2023-01-07T14:33:24.255Z,100724.44
2023-01-07T14:36:00.486Z,100709.00
2023-01-07T14:38:30.381Z,100715.41
2023-01-07T14:41:08.500Z,100713.03
2023-01-07T14:43:48.450Z,100702.78
2023-01-07T14:46:24.745Z,100716.41
2023-01-07T14:48:58.025Z,100710.72
2023-01-07T14:51:43.790Z,100709.31
2023-01-07T14:54:41.565Z,100713.16
2023-01-07T14:57:55.136Z,100715.97
2023-01-07T15:00:46.950Z,100704.75
2023-01-07T15:04:04.736Z,100704.53
2023-01-07T15:06:35.496Z,100703.19
2023-01-07T15:09:29.554Z,100701.66
2023-01-07T15:12:17.809Z,100714.16
2023-01-07T15:23:59.134Z,100717.94
2023-01-07T17:13:38.929Z,100649.72
2023-01-07T18:01:15.417Z,100596.81
2023-01-07T18:25:49.866Z,100581.75
2023-01-07T18:32:36.412Z,100570.66
2023-01-07T19:50:09.854Z,100481.25
2023-01-07T21:05:02.957Z,100411.91
2023-01-07T23:06:47.673Z,100303.63
2023-01-07T23:13:34.436Z,100301.28
